Terminal Aerodrome Forecast
Issued by NWS Charleston, WV

Home | Current Version | Previous Version | Text Only | Print | Product List | Glossary On
Versions: 1 2 3 4 5 6 7 8 9 10 11 12 13 14 15 16 17 18 19 20 21 22
657
FTUS41 KRLX 241723
TAFEKN
TAF
KEKN 241723Z 2418/2518 24005KT P6SM BKN050
     FM250700 VRB03KT 5SM BR FEW070
     FM251100 00000KT P6SM BKN045
     FM251400 25010G16KT P6SM BKN040=

USA.gov is the U.S. government's official web portal to all federal, state and local government web resources and services.